General Aviation Weather

Text Reports

Enter one or more of the following location identifiers separated by a space:

Zip Code, Four-Character ICAO or Three-Character IATA airport codes.

METAR - Aviation Routine Weather Report
KPSK - Dublin, Virginia
Updated at 4:55 PM GMT on August 28, 2015 (12:55 PM EDT):
METAR KPSK 281655Z AUTO 18003KT 10SM BKN022 OVC028 25/15 A3027 RMK AO2 T02510154
TAF - Terminal Area Forecast
KPSK - Dublin, Virginia
Updated at 4:55 PM GMT on August 28, 2015 (12:55 PM EDT):
No TAF is currently available for this location.
Decoded:
No decoded TAF is available.
PIREP - Pilot Weather Report
KPSK - Dublin, Virginia
Updated at 4:55 PM GMT on August 28, 2015 (12:55 PM EDT):
No PIREP is currently available for this location.
AIRMET - Airmens Meteorological Information
KPSK - Dublin, Virginia
Updated at 4:55 PM GMT on August 28, 2015 (12:55 PM EDT):
No AIRMET is currently available for this location.
SIGMET - Significant Meteorological Information
KPSK - Dublin, Virginia
Updated at 4:55 PM GMT on August 28, 2015 (12:55 PM EDT):
No SIGMET is currently available for this location.
NOTAM - Notice to Airmen
KPSK - Dublin, Virginia
Updated at 4:55 PM GMT on August 28, 2015 (12:55 PM EDT):
No NOTAM is currently available for this location.
Forecast Area
KPSK - Dublin, Virginia
Updated at 4:55 PM GMT on August 28, 2015 (12:55 PM EDT):
No NOTAM is currently available for this location.
Aviation Weather Maps